createdAt,value
2023-03-30T00:00:23.339Z,49.38
2023-03-30T00:05:25.903Z,46.63
2023-03-30T00:10:27.313Z,41.80
2023-03-30T00:15:28.744Z,49.13
2023-03-30T00:20:32.330Z,46.65
2023-03-30T00:25:33.747Z,47.10
2023-03-30T00:30:35.215Z,47.78
2023-03-30T00:35:36.646Z,51.40
2023-03-30T00:40:38.457Z,49.20
2023-03-30T00:45:40.957Z,46.83
2023-03-30T00:50:44.525Z,50.92
2023-03-30T00:55:47.244Z,53.87
2023-03-30T01:00:48.720Z,55.40
2023-03-30T01:05:51.578Z,54.13
2023-03-30T01:10:53.800Z,50.30
2023-03-30T01:16:01.323Z,49.08
2023-03-30T01:21:23.944Z,53.25
2023-03-30T01:26:35.628Z,53.85
2023-03-30T01:31:45.985Z,56.50
2023-03-30T01:36:48.539Z,56.60
2023-03-30T01:42:05.924Z,56.10
2023-03-30T01:47:14.742Z,56.95
2023-03-30T01:52:21.981Z,52.80
2023-03-30T01:57:30.264Z,54.58
2023-03-30T02:02:32.847Z,55.05
2023-03-30T02:07:35.850Z,56.08
2023-03-30T02:12:37.969Z,61.42
2023-03-30T02:17:42.265Z,58.72
2023-03-30T02:22:44.188Z,56.05
2023-03-30T02:27:45.835Z,57.33
2023-03-30T02:32:53.351Z,51.83
2023-03-30T02:37:58.649Z,52.55
2023-03-30T02:43:18.978Z,48.42
2023-03-30T02:48:23.666Z,56.35
2023-03-30T02:53:31.575Z,50.42
2023-03-30T02:58:42.453Z,48.03
2023-03-30T03:03:45.849Z,45.58
2023-03-30T03:08:50.589Z,45.20
2023-03-30T03:13:52.400Z,44.13
2023-03-30T03:18:53.858Z,43.55
2023-03-30T03:23:55.342Z,45.35
2023-03-30T03:28:56.834Z,41.15
2023-03-30T03:33:58.264Z,38.78
2023-03-30T03:38:59.676Z,44.35
2023-03-30T03:44:01.262Z,40.75
2023-03-30T03:49:02.990Z,43.13
2023-03-30T03:54:04.345Z,41.97
2023-03-30T03:59:05.749Z,41.58
2023-03-30T04:04:07.216Z,36.95
2023-03-30T04:09:08.621Z,45.97
2023-03-30T04:14:10.207Z,41.55
2023-03-30T04:19:12.699Z,41.22
2023-03-30T04:24:14.121Z,39.67
2023-03-30T04:29:20.742Z,39.38
2023-03-30T04:34:22.184Z,43.55
2023-03-30T04:39:23.763Z,43.85
2023-03-30T04:44:25.379Z,38.25
2023-03-30T04:49:27.426Z,37.28
2023-03-30T04:54:30.682Z,36.15
2023-03-30T04:59:33.492Z,35.70
2023-03-30T05:04:35.353Z,36.25
2023-03-30T05:09:36.799Z,37.30
2023-03-30T05:14:38.268Z,43.00
2023-03-30T05:19:39.675Z,39.75
2023-03-30T05:24:41.330Z,36.63
2023-03-30T05:29:42.765Z,34.95
2023-03-30T05:34:44.179Z,38.78
2023-03-30T05:39:45.556Z,34.45
2023-03-30T05:44:47.099Z,32.53
2023-03-30T05:49:48.574Z,29.40
2023-03-30T05:54:49.923Z,31.23
2023-03-30T05:59:51.376Z,24.40
2023-03-30T06:04:53.501Z,31.00
2023-03-30T06:09:55.090Z,28.40
2023-03-30T06:14:56.463Z,27.58
2023-03-30T06:19:57.969Z,25.98
2023-03-30T06:24:59.344Z,32.85
2023-03-30T06:30:00.920Z,28.05
2023-03-30T06:35:03.974Z,21.88
2023-03-30T06:40:09.068Z,24.10
2023-03-30T06:45:11.272Z,23.50
2023-03-30T06:50:13.426Z,28.58
2023-03-30T06:55:15.001Z,26.65
2023-03-30T07:00:16.903Z,23.00
2023-03-30T07:05:18.323Z,26.20
2023-03-30T07:10:21.261Z,21.58
2023-03-30T07:15:23.311Z,25.40
2023-03-30T07:20:24.707Z,21.63
2023-03-30T07:25:27.006Z,22.63
2023-03-30T07:30:28.450Z,20.35
2023-03-30T07:35:29.922Z,26.50
2023-03-30T07:40:31.693Z,20.17
2023-03-30T07:45:33.824Z,22.42
2023-03-30T07:50:35.368Z,19.67
2023-03-30T07:55:37.654Z,18.02
2023-03-30T08:00:39.684Z,19.15
2023-03-30T08:05:41.719Z,17.42
2023-03-30T08:10:43.082Z,17.48
2023-03-30T08:15:45.096Z,16.90
2023-03-30T08:20:49.679Z,16.92
2023-03-30T08:30:54.703Z,13.27
2023-03-30T08:35:56.160Z,15.63
2023-03-30T08:40:57.592Z,12.20
2023-03-30T08:46:00.501Z,15.45
2023-03-30T08:51:05.793Z,16.60
2023-03-30T08:56:10.453Z,12.60
2023-03-30T09:01:30.555Z,10.57
2023-03-30T09:06:51.915Z,18.58
2023-03-30T09:12:16.473Z,9.93
2023-03-30T09:17:21.209Z,13.95
2023-03-30T09:22:27.296Z,12.60
2023-03-30T09:27:41.723Z,9.43
2023-03-30T09:32:46.657Z,14.55
2023-03-30T09:37:48.649Z,14.27
2023-03-30T09:43:04.820Z,10.60
2023-03-30T09:48:08.589Z,15.20
2023-03-30T09:53:24.853Z,11.00
2023-03-30T09:58:28.563Z,10.23
2023-03-30T10:03:30.396Z,11.98
2023-03-30T10:08:32.139Z,13.27
2023-03-30T10:13:35.914Z,8.32
2023-03-30T10:18:41.578Z,9.90
2023-03-30T10:23:44.909Z,11.98
2023-03-30T10:28:53.761Z,9.43
2023-03-30T10:33:57.806Z,10.90
2023-03-30T10:39:08.639Z,8.18
2023-03-30T10:44:30.243Z,9.82
2023-03-30T10:49:34.445Z,5.82
2023-03-30T10:54:42.747Z,6.45
2023-03-30T10:59:59.992Z,15.73
2023-03-30T11:05:01.678Z,18.98
2023-03-30T11:10:32.118Z,13.52
2023-03-30T11:15:37.375Z,20.13
2023-03-30T11:20:57.752Z,18.48
2023-03-30T11:26:04.251Z,14.68
2023-03-30T11:31:15.309Z,17.45
2023-03-30T11:36:32.443Z,21.92
2023-03-30T11:41:40.851Z,20.42
2023-03-30T11:46:47.965Z,19.08
2023-03-30T11:52:08.337Z,13.73
2023-03-30T11:57:24.894Z,23.25
2023-03-30T12:02:31.637Z,15.52
2023-03-30T12:07:35.938Z,14.52
2023-03-30T12:12:39.441Z,14.00
2023-03-30T12:18:00.701Z,17.07
2023-03-30T12:23:05.626Z,15.95
2023-03-30T12:28:12.734Z,20.92
2023-03-30T12:33:18.513Z,17.15
2023-03-30T12:38:23.575Z,14.32
2023-03-30T12:43:32.906Z,17.85
2023-03-30T12:48:52.786Z,12.25
2023-03-30T12:53:54.255Z,14.05
2023-03-30T12:59:14.293Z,13.32
2023-03-30T13:04:24.613Z,7.82
2023-03-30T13:09:26.238Z,14.23
2023-03-30T13:14:27.735Z,15.05
2023-03-30T13:19:32.001Z,15.48
2023-03-30T13:24:33.392Z,13.13
2023-03-30T13:29:34.735Z,10.93
2023-03-30T13:34:39.468Z,15.98
2023-03-30T13:39:54.384Z,12.82
2023-03-30T13:44:57.365Z,19.42
2023-03-30T13:50:00.644Z,18.60
2023-03-30T13:55:02.824Z,10.25
2023-03-30T14:00:19.642Z,18.70
2023-03-30T14:05:23.015Z,25.73
2023-03-30T14:10:25.531Z,9.30
2023-03-30T14:15:33.911Z,19.15
2023-03-30T14:20:35.566Z,13.32
2023-03-30T14:25:40.111Z,10.75
2023-03-30T14:30:56.790Z,12.55
2023-03-30T14:35:59.883Z,13.90
2023-03-30T14:41:01.522Z,21.33
2023-03-30T14:46:04.384Z,20.88
2023-03-30T14:51:10.339Z,15.80
2023-03-30T14:56:12.073Z,18.88
2023-03-30T15:01:15.520Z,21.58
2023-03-30T15:06:24.557Z,22.40
2023-03-30T15:11:27.660Z,27.10
2023-03-30T15:16:31.332Z,24.65
2023-03-30T15:21:35.320Z,23.90
2023-03-30T15:26:39.570Z,27.58
2023-03-30T15:31:42.798Z,21.23
2023-03-30T15:36:45.473Z,25.75
2023-03-30T15:41:55.855Z,25.10
2023-03-30T15:46:58.293Z,25.48
2023-03-30T15:52:01.848Z,32.53
2023-03-30T15:57:13.788Z,30.67
2023-03-30T16:02:15.604Z,28.77
2023-03-30T16:07:21.164Z,30.63
2023-03-30T16:12:27.486Z,31.60
2023-03-30T16:17:28.912Z,48.42
2023-03-30T16:22:30.444Z,40.75
2023-03-30T16:27:32.149Z,42.40
2023-03-30T16:32:35.819Z,38.17
2023-03-30T16:37:37.446Z,29.83
2023-03-30T16:42:38.863Z,39.67
2023-03-30T16:47:40.653Z,29.88
2023-03-30T16:52:42.099Z,40.63
2023-03-30T16:57:43.697Z,33.75
2023-03-30T17:02:45.524Z,33.90
2023-03-30T17:07:47.233Z,35.65
2023-03-30T17:12:49.702Z,39.28
2023-03-30T17:17:52.910Z,33.42
2023-03-30T17:22:54.444Z,33.83
2023-03-30T17:27:56.384Z,34.47
2023-03-30T17:32:57.902Z,40.78
2023-03-30T17:37:59.851Z,44.35
2023-03-30T17:43:01.304Z,39.25
2023-03-30T17:48:03.739Z,46.33
2023-03-30T17:53:05.547Z,44.58
2023-03-30T17:58:15.720Z,43.75
2023-03-30T18:03:18.064Z,47.50
2023-03-30T18:08:21.410Z,49.67
2023-03-30T18:13:23.727Z,39.25
2023-03-30T18:18:26.209Z,49.95
2023-03-30T18:23:27.583Z,38.25
2023-03-30T18:28:29.180Z,38.15
2023-03-30T18:33:30.686Z,30.90
2023-03-30T18:38:33.250Z,49.28
2023-03-30T18:43:35.937Z,47.35
2023-03-30T18:48:37.289Z,34.53
2023-03-30T18:53:39.045Z,33.03
2023-03-30T18:58:42.566Z,47.92
2023-03-30T19:03:45.055Z,51.70
2023-03-30T19:08:47.029Z,41.92
2023-03-30T19:13:48.712Z,37.42
2023-03-30T19:18:50.295Z,36.78
2023-03-30T19:23:51.872Z,44.65
2023-03-30T19:28:53.239Z,44.65
2023-03-30T19:33:54.939Z,47.25
2023-03-30T19:38:56.399Z,44.13
2023-03-30T19:43:57.795Z,42.13
2023-03-30T19:48:59.202Z,44.05
2023-03-30T19:54:00.718Z,39.40
2023-03-30T19:59:02.423Z,43.88
2023-03-30T20:04:04.219Z,48.17
2023-03-30T20:09:05.660Z,41.88
2023-03-30T20:14:07.433Z,45.55
2023-03-30T20:19:22.377Z,41.17
2023-03-30T20:24:28.152Z,46.22
2023-03-30T20:29:29.593Z,43.38
2023-03-30T20:34:34.603Z,45.58
2023-03-30T20:39:37.210Z,49.13
2023-03-30T20:44:41.079Z,49.10
2023-03-30T20:49:43.706Z,51.13
2023-03-30T20:54:45.381Z,40.95
2023-03-30T20:59:48.090Z,52.05
2023-03-30T21:04:50.358Z,45.88
2023-03-30T21:09:51.944Z,44.22
2023-03-30T21:14:53.368Z,53.17
2023-03-30T21:19:54.815Z,46.08
2023-03-30T21:24:56.410Z,52.22
2023-03-30T21:29:58.098Z,47.90
2023-03-30T21:34:59.558Z,45.90
2023-03-30T21:40:01.147Z,46.13
2023-03-30T21:45:02.651Z,50.85
2023-03-30T21:50:04.344Z,50.92
2023-03-30T21:55:06.099Z,46.35
2023-03-30T22:00:10.209Z,44.42
2023-03-30T22:05:11.823Z,43.42
2023-03-30T22:10:13.170Z,58.95
2023-03-30T22:15:14.588Z,46.22
2023-03-30T22:20:16.774Z,41.50
2023-03-30T22:25:18.192Z,54.38
2023-03-30T22:30:19.742Z,66.82
2023-03-30T22:35:21.443Z,61.50
2023-03-30T22:40:22.814Z,45.10
2023-03-30T22:45:25.631Z,46.58
2023-03-30T22:50:27.740Z,43.35
2023-03-30T22:55:29.143Z,53.58
2023-03-30T23:00:30.875Z,43.33
2023-03-30T23:05:33.535Z,51.63
2023-03-30T23:10:37.411Z,46.08
2023-03-30T23:15:38.758Z,52.35
2023-03-30T23:20:40.737Z,44.58
2023-03-30T23:25:51.606Z,48.13
2023-03-30T23:30:53.023Z,39.25
2023-03-30T23:35:54.569Z,41.08
2023-03-30T23:40:56.831Z,42.88
2023-03-30T23:45:58.209Z,40.33
2023-03-30T23:50:59.707Z,30.35
2023-03-30T23:56:05.889Z,49.42
